Time;durP1;ratioP1;P1;durP2;ratioP2;P2;SDS_P1;SDS_P2;PMS_P1;PMS_P2;Temp;Humidity;BMP_temperature;BMP_pressure;BME280_temperature;BME280_humidity;BME280_pressure;Samples;Min_cycle;Max_cycle;Signal;HPM_P1;HPM_P2
2021/12/26 00:03:01;;;;;;;11.00;4.13;;;;;;;0.11;79.26;99984.53;5382127;32;34898;-66
2021/12/26 00:06:12;;;;;;;12.67;4.20;;;;;;;0.75;75.54;99981.66;5384857;32;32662;-62
2021/12/26 00:09:17;;;;;;;9.97;4.10;;;;;;;1.16;72.91;99974.47;5376576;32;34568;-61
2021/12/26 00:12:22;;;;;;;8.90;4.27;;;;;;;0.90;73.83;99983.31;5378400;32;34809;-61
2021/12/26 00:15:32;;;;;;;8.23;3.67;;;;;;;1.54;70.56;99966.38;5359722;32;34547;-61
2021/12/26 00:18:42;;;;;;;9.97;3.80;;;;;;;0.04;77.43;99976.78;5365219;32;34653;-61
2021/12/26 00:21:47;;;;;;;10.00;4.03;;;;;;;0.89;76.09;99976.38;5374335;32;34459;-61
2021/12/26 00:24:50;;;;;;;8.43;3.60;;;;;;;1.45;72.29;99975.12;5378734;32;34475;-66
2021/12/26 00:28:03;;;;;;;6.90;3.17;;;;;;;0.14;75.82;99978.50;5389460;32;33124;-61
2021/12/26 00:31:06;;;;;;;9.47;3.60;;;;;;;-0.51;77.89;99972.59;5365628;32;34847;-67
2021/12/26 00:34:18;;;;;;;9.32;3.87;;;;;;;-0.05;78.18;99986.31;5359997;32;34179;-61
2021/12/26 00:37:30;;;;;;;8.83;3.40;;;;;;;0.81;74.29;99978.16;5399216;32;34952;-61
2021/12/26 00:40:37;;;;;;;9.40;4.10;;;;;;;1.42;69.70;99979.44;5380211;32;33100;-68
2021/12/26 00:43:39;;;;;;;9.07;3.97;;;;;;;0.37;74.05;99986.16;5367692;32;33836;-66
2021/12/26 00:46:43;;;;;;;9.70;3.27;;;;;;;0.60;74.57;99988.66;5380845;32;33644;-62
2021/12/26 00:49:45;;;;;;;8.87;3.77;;;;;;;1.42;71.44;99977.75;5386676;32;35308;-67
2021/12/26 00:52:48;;;;;;;9.53;3.80;;;;;;;1.06;72.19;99984.06;5385130;32;34094;-67
2021/12/26 00:55:51;;;;;;;9.07;4.00;;;;;;;0.69;72.69;99989.44;5347196;32;35214;-67
2021/12/26 00:58:54;;;;;;;10.33;4.10;;;;;;;-0.13;76.30;99992.31;5378521;32;33083;-66
2021/12/26 01:01:56;;;;;;;8.70;3.83;;;;;;;0.71;75.22;99995.50;5383090;32;34466;-66
2021/12/26 01:05:04;;;;;;;9.10;3.47;;;;;;;0.31;75.02;99996.50;5390881;32;35331;-62
2021/12/26 01:08:14;;;;;;;10.80;4.17;;;;;;;-0.52;78.95;100006.16;5363507;32;34224;-62
2021/12/26 01:11:34;;;;;;;10.60;4.40;;;;;;;0.66;76.07;99998.97;5382872;32;34112;-61
2021/12/26 01:14:46;;;;;;;7.27;3.67;;;;;;;1.00;73.99;99997.88;5381178;32;34628;-61
2021/12/26 01:17:54;;;;;;;10.60;4.73;;;;;;;1.74;69.37;99992.09;5379717;32;33392;-66
2021/12/26 01:21:15;;;;;;;9.17;3.73;;;;;;;0.98;72.61;99998.78;5365793;32;34267;-65
2021/12/26 01:24:23;;;;;;;10.40;3.93;;;;;;;1.13;72.06;100000.41;5385522;32;34904;-61
2021/12/26 01:27:28;;;;;;;7.67;3.50;;;;;;;0.87;70.89;99987.63;5361006;32;34612;-60
2021/12/26 01:30:33;;;;;;;8.40;3.78;;;;;;;0.81;72.46;99993.69;5386506;32;35505;-61
2021/12/26 01:33:39;;;;;;;9.80;3.83;;;;;;;1.59;70.80;99999.16;5370357;32;33459;-61
2021/12/26 01:36:42;;;;;;;10.00;4.30;;;;;;;0.52;74.09;100011.97;5363318;32;34088;-62
2021/12/26 01:39:47;;;;;;;10.57;4.03;;;;;;;1.15;74.37;100011.59;5369246;32;35417;-67
2021/12/26 01:42:54;;;;;;;9.45;4.12;;;;;;;0.70;73.63;100008.41;5387374;32;34249;-62
2021/12/26 01:45:58;;;;;;;11.43;4.53;;;;;;;0.63;76.48;100010.16;5348422;32;34836;-66
2021/12/26 01:49:18;;;;;;;10.23;4.27;;;;;;;0.91;73.55;100010.91;5361732;32;33041;-63
2021/12/26 01:52:21;;;;;;;8.33;4.20;;;;;;;1.23;73.63;100010.69;5379153;32;33888;-67
2021/12/26 01:55:37;;;;;;;15.00;5.17;;;;;;;0.49;75.87;100007.66;5372968;32;34218;-60
2021/12/26 01:58:40;;;;;;;11.07;4.37;;;;;;;0.90;74.21;100009.19;5369694;32;34573;-66
2021/12/26 02:01:47;;;;;;;10.30;4.80;;;;;;;0.47;75.96;99999.03;5361577;32;34429;-61
2021/12/26 02:04:50;;;;;;;9.10;4.10;;;;;;;0.70;75.67;100003.22;5361700;32;34117;-60
2021/12/26 02:07:53;;;;;;;9.60;4.50;;;;;;;0.49;76.06;100006.78;5403396;32;34079;-61
2021/12/26 02:10:59;;;;;;;11.53;4.87;;;;;;;0.32;77.05;99993.91;5369737;32;34094;-67
2021/12/26 02:14:01;;;;;;;11.90;4.40;;;;;;;1.54;72.28;99981.94;5385572;32;34445;-62
2021/12/26 02:17:05;;;;;;;8.38;3.87;;;;;;;1.21;72.78;99983.06;5370881;32;33917;-67
2021/12/26 02:24:15;;;;;;;13.53;4.03;;;;;;;0.41;74.27;99993.03;5377587;32;33871;-61
2021/12/26 02:27:33;;;;;;;9.90;3.93;;;;;;;0.48;74.75;99982.66;5365920;32;34254;-68
2021/12/26 02:30:37;;;;;;;8.07;3.37;;;;;;;-0.04;75.42;99987.16;5374207;32;33386;-61
2021/12/26 02:33:42;;;;;;;9.13;4.20;;;;;;;0.87;72.53;99987.63;5361127;32;34823;-67
2021/12/26 02:36:45;;;;;;;11.20;4.60;;;;;;;0.20;75.00;99988.81;5369563;32;34258;-67
2021/12/26 02:39:56;;;;;;;10.03;4.50;;;;;;;0.24;74.62;99993.09;5382993;32;33616;-60
2021/12/26 02:43:03;;;;;;;10.57;4.60;;;;;;;0.05;74.97;100004.34;5374142;32;33167;-67
2021/12/26 02:46:07;;;;;;;14.10;5.20;;;;;;;0.06;75.51;100003.47;5352772;32;34764;-66
2021/12/26 02:49:10;;;;;;;10.67;5.03;;;;;;;0.39;74.35;99995.63;5373876;32;35377;-67
2021/12/26 02:52:13;;;;;;;8.97;3.93;;;;;;;0.45;72.58;100005.06;5385942;32;33031;-61
2021/12/26 02:55:17;;;;;;;10.15;3.55;;;;;;;0.55;70.78;99991.25;5363246;32;33041;-61
2021/12/26 02:58:23;;;;;;;7.70;3.20;;;;;;;0.18;70.38;99996.56;5366936;32;34145;-67
2021/12/26 03:01:29;;;;;;;5.95;2.60;;;;;;;1.40;65.07;99995.00;5378646;32;34432;-66
2021/12/26 03:04:32;;;;;;;8.10;3.10;;;;;;;0.37;68.10;100012.00;5358318;32;34095;-66
2021/12/26 03:07:36;;;;;;;7.27;2.50;;;;;;;0.76;67.97;100004.06;5360251;32;34701;-61
2021/12/26 03:10:45;;;;;;;6.67;2.30;;;;;;;0.21;66.00;99998.28;5385389;32;35355;-66
2021/12/26 03:13:56;;;;;;;6.00;2.17;;;;;;;0.51;64.42;99997.28;5386713;32;33226;-60
2021/12/26 03:17:09;;;;;;;2.43;1.50;;;;;;;0.70;58.95;100006.69;5390220;32;33369;-60
2021/12/26 03:20:19;;;;;;;4.68;2.10;;;;;;;0.65;58.04;99998.09;5369371;32;34011;-62
2021/12/26 03:23:25;;;;;;;4.73;1.90;;;;;;;0.39;59.01;100005.97;5370177;32;34056;-62
2021/12/26 03:26:31;;;;;;;6.43;2.30;;;;;;;0.75;60.45;99998.91;5382075;32;35207;-67
2021/12/26 03:29:36;;;;;;;4.57;2.17;;;;;;;0.58;63.06;100004.19;5380356;32;34471;-61
2021/12/26 03:32:40;;;;;;;6.23;2.90;;;;;;;0.30;66.54;99997.38;5366729;32;35242;-61
2021/12/26 03:35:48;;;;;;;5.87;2.83;;;;;;;0.64;67.70;99996.34;5356982;32;33957;-66
2021/12/26 03:38:54;;;;;;;7.68;2.75;;;;;;;1.04;67.12;99997.00;5382616;32;34107;-61
2021/12/26 03:42:01;;;;;;;7.03;2.80;;;;;;;1.34;65.38;99995.91;5371978;32;35018;-66
2021/12/26 03:45:05;;;;;;;4.80;2.42;;;;;;;0.64;67.70;99996.34;5352780;32;33398;-66
2021/12/26 03:48:17;;;;;;;3.83;2.17;;;;;;;0.45;68.17;99995.63;5380925;32;34901;-61
2021/12/26 03:51:34;;;;;;;7.67;2.70;;;;;;;0.48;70.36;99997.31;5369339;32;34709;-65
2021/12/26 03:54:37;;;;;;;6.25;2.67;;;;;;;1.07;65.78;100002.16;5381425;32;34470;-66
2021/12/26 03:57:39;;;;;;;4.25;2.25;;;;;;;0.41;68.34;99998.22;5385444;32;34264;-66
2021/12/26 04:00:46;;;;;;;4.90;2.25;;;;;;;0.42;67.29;99995.59;5386125;32;34260;-68
2021/12/26 04:03:49;;;;;;;4.40;2.30;;;;;;;0.11;68.31;99991.41;5363239;32;35042;-66
2021/12/26 04:06:52;;;;;;;6.90;2.60;;;;;;;0.85;66.25;99984.19;5370581;32;34144;-61
2021/12/26 04:09:57;;;;;;;6.57;2.70;;;;;;;0.27;68.40;99995.69;5365752;32;34577;-66
2021/12/26 04:13:05;;;;;;;5.33;2.30;;;;;;;0.40;67.23;99994.75;5375032;32;33986;-61
2021/12/26 04:16:11;;;;;;;7.13;2.50;;;;;;;0.58;67.01;99990.34;5378022;32;35164;-66
2021/12/26 04:19:18;;;;;;;3.77;2.03;;;;;;;1.04;65.10;99991.84;5388808;32;34916;-61
2021/12/26 04:22:21;;;;;;;5.63;2.33;;;;;;;0.09;66.22;99990.56;5362652;32;34655;-66
2021/12/26 04:25:24;;;;;;;5.23;2.10;;;;;;;0.51;65.00;99989.53;5370696;32;34083;-66
2021/12/26 04:28:28;;;;;;;5.37;2.23;;;;;;;0.21;65.60;99993.13;5368066;32;34027;-61
2021/12/26 04:31:32;;;;;;;3.83;1.73;;;;;;;1.13;62.38;99984.88;5364354;32;33969;-62
2021/12/26 04:34:39;;;;;;;5.27;2.63;;;;;;;0.67;59.69;99991.19;5358855;32;32833;-61
2021/12/26 04:37:44;;;;;;;4.47;1.80;;;;;;;0.74;57.76;99989.44;5381089;32;34898;-61
2021/12/26 04:40:47;;;;;;;3.90;1.40;;;;;;;0.74;57.06;99995.47;5373538;32;33100;-61
2021/12/26 04:43:57;;;;;;;4.37;1.57;;;;;;;0.95;55.85;100002.22;5380786;32;34638;-62
2021/12/26 04:47:02;;;;;;;3.00;1.30;;;;;;;0.69;54.89;100010.13;5381204;32;34218;-61
2021/12/26 04:50:16;;;;;;;3.33;1.50;;;;;;;0.62;55.32;100015.34;5380790;32;34192;-63
2021/12/26 04:53:20;;;;;;;2.70;1.30;;;;;;;0.56;55.02;100023.13;5364326;32;34243;-66
2021/12/26 04:56:28;;;;;;;2.83;1.30;;;;;;;1.05;55.68;100016.84;5347001;32;32921;-65
2021/12/26 04:59:31;;;;;;;3.23;1.60;;;;;;;0.81;55.19;100024.75;5388843;32;36369;-66
2021/12/26 05:02:36;;;;;;;3.87;1.30;;;;;;;0.92;55.27;100029.88;5368556;32;35077;-67
2021/12/26 05:05:44;;;;;;;4.80;1.47;;;;;;;0.35;58.10;100032.69;5346006;32;33480;-61
2021/12/26 05:08:47;;;;;;;3.40;1.70;;;;;;;0.73;57.72;100027.37;5367182;32;34395;-61
2021/12/26 05:11:51;;;;;;;;;;;;;;;0.79;57.05;100027.34;5385265;32;33991;-62
2021/12/26 05:14:54;;;;;;;4.47;1.67;;;;;;;0.93;55.73;100029.00;5388448;32;35113;-66
2021/12/26 05:18:04;;;;;;;3.23;1.40;;;;;;;1.37;54.74;100036.47;5379171;32;33217;-66
2021/12/26 05:21:08;;;;;;;5.80;1.80;;;;;;;0.38;56.17;100036.97;5381355;32;35629;-66
2021/12/26 05:24:13;;;;;;;3.45;1.37;;;;;;;0.77;56.33;100038.53;5380979;32;34435;-60
2021/12/26 05:27:19;;;;;;;3.20;1.50;;;;;;;1.33;54.02;100038.22;5373444;32;33584;-61
2021/12/26 05:30:24;;;;;;;4.20;1.73;;;;;;;0.75;54.40;100045.47;5361045;32;33246;-67
2021/12/26 05:33:31;;;;;;;4.30;1.50;;;;;;;0.69;55.16;100055.84;5376518;32;35092;-61
2021/12/26 05:36:35;;;;;;;3.40;1.40;;;;;;;0.63;55.28;100048.09;5375014;32;34763;-61
2021/12/26 05:39:45;;;;;;;6.07;2.17;;;;;;;0.60;55.24;100055.88;5393837;32;34257;-61
2021/12/26 05:42:59;;;;;;;2.70;1.50;;;;;;;0.18;56.52;100052.56;5374754;32;33790;-61
2021/12/26 05:46:06;;;;;;;3.43;1.33;;;;;;;0.73;54.47;100062.72;5343558;33;34410;-67
2021/12/26 05:49:10;;;;;;;4.13;1.50;;;;;;;0.68;54.05;100054.13;5339779;33;34466;-62
2021/12/26 05:52:18;;;;;;;3.40;1.53;;;;;;;1.07;53.40;100059.09;5339395;33;33239;-67
2021/12/26 05:55:23;;;;;;;2.43;1.30;;;;;;;0.72;54.00;100063.59;5331930;33;35883;-66
2021/12/26 05:58:28;;;;;;;3.33;1.50;;;;;;;0.40;53.61;100062.00;5332243;33;34935;-61
2021/12/26 06:01:30;;;;;;;4.37;1.47;;;;;;;1.18;52.28;100060.78;5357951;33;33613;-66
2021/12/26 06:04:33;;;;;;;3.63;1.60;;;;;;;0.95;52.01;100066.06;5336423;33;34608;-68
2021/12/26 06:07:40;;;;;;;3.40;1.33;;;;;;;0.71;52.42;100072.19;5333453;33;32921;-61
2021/12/26 06:10:45;;;;;;;4.70;1.50;;;;;;;0.75;52.27;100077.37;5333357;33;35010;-67
2021/12/26 06:13:48;;;;;;;3.97;1.60;;;;;;;1.05;51.67;100075.50;5354268;33;35072;-66
2021/12/26 06:16:57;;;;;;;2.37;1.20;;;;;;;1.14;50.89;100080.63;5356121;33;33934;-60
2021/12/26 06:20:14;;;;;;;3.57;1.30;;;;;;;1.13;50.03;100093.56;5317707;33;34555;-67
2021/12/26 06:23:17;;;;;;;2.93;1.30;;;;;;;1.46;50.41;100092.50;5318969;33;34661;-67
2021/12/26 06:26:22;;;;;;;;;;;;;;;1.21;49.09;100086.62;5342171;33;35542;-67
2021/12/26 06:29:31;;;;;;;3.17;1.30;;;;;;;0.79;50.21;100094.59;5331562;33;33082;-62
2021/12/26 06:32:34;;;;;;;3.07;1.53;;;;;;;0.61;50.25;100104.16;5333421;33;35097;-66
2021/12/26 06:35:38;;;;;;;2.28;1.23;;;;;;;1.12;48.81;100103.06;5338072;32;33113;-62
2021/12/26 06:38:44;;;;;;;;;;;;;;;1.73;46.96;100101.81;5346944;33;33782;-61
2021/12/26 06:41:48;;;;;;;5.00;1.30;;;;;;;0.95;48.52;100110.91;5330356;33;33606;-66
2021/12/26 06:44:51;;;;;;;3.80;1.42;;;;;;;1.34;47.60;100114.16;5322467;33;34195;-67
2021/12/26 06:48:01;;;;;;;2.23;1.13;;;;;;;0.51;49.31;100122.28;5328107;33;34023;-61
2021/12/26 06:51:07;;;;;;;3.50;1.30;;;;;;;0.61;49.40;100122.25;5327299;33;33053;-61
2021/12/26 06:54:17;;;;;;;3.30;1.60;;;;;;;1.08;49.52;100128.09;5335349;33;34597;-61
2021/12/26 06:57:27;;;;;;;7.33;1.70;;;;;;;1.28;48.12;100125.41;5341111;33;34751;-61
2021/12/26 07:00:36;;;;;;;5.50;1.43;;;;;;;0.98;49.27;100130.75;5332023;33;34236;-67
2021/12/26 07:03:41;;;;;;;2.57;1.30;;;;;;;1.54;47.41;100134.75;5347098;32;35259;-61
2021/12/26 07:06:53;;;;;;;;;;;;;;;1.02;48.27;100132.44;5371849;32;33635;-62
2021/12/26 07:10:01;;;;;;;3.50;1.30;;;;;;;1.53;47.75;100125.28;5371811;32;34798;-67
2021/12/26 07:13:09;;;;;;;5.10;1.53;;;;;;;1.39;47.99;100127.94;5329153;33;33941;-61
2021/12/26 07:16:16;;;;;;;5.67;1.40;;;;;;;1.87;47.57;100131.09;5334789;33;33912;-61
2021/12/26 07:19:22;;;;;;;4.87;2.03;;;;;;;1.87;47.63;100134.53;5333259;33;34652;-66
2021/12/26 07:22:25;;;;;;;15.23;1.90;;;;;;;1.75;47.13;100133.78;5333974;33;33858;-67
2021/12/26 07:25:32;;;;;;;5.70;2.10;;;;;;;2.12;46.61;100140.34;5335872;33;34815;-61
2021/12/26 07:28:37;;;;;;;5.63;2.00;;;;;;;0.94;48.02;100150.59;5335733;33;35429;-61
2021/12/26 07:31:42;;;;;;;3.17;1.30;;;;;;;1.20;49.02;100147.03;5330699;33;34910;-66
2021/12/26 07:34:45;;;;;;;4.80;1.30;;;;;;;0.77;48.92;100152.37;5313120;33;34314;-61
2021/12/26 07:37:48;;;;;;;4.37;1.70;;;;;;;0.84;48.17;100148.03;5341169;33;33981;-66
2021/12/26 07:40:50;;;;;;;2.30;1.20;;;;;;;1.29;47.24;100153.06;5322226;33;33362;-67
2021/12/26 07:43:53;;;;;;;5.47;1.63;;;;;;;1.55;46.09;100145.13;5337450;32;34591;-67
2021/12/26 07:46:56;;;;;;;3.70;1.50;;;;;;;1.79;46.47;100146.66;5349494;32;33892;-61
2021/12/26 07:50:01;;;;;;;4.50;1.60;;;;;;;1.88;46.02;100143.16;5354292;32;35983;-67
2021/12/26 07:53:09;;;;;;;4.10;1.73;;;;;;;1.42;46.33;100143.47;5355194;32;33597;-61
2021/12/26 07:56:13;;;;;;;2.70;1.30;;;;;;;1.10;47.06;100155.72;5345526;32;34428;-68
2021/12/26 07:59:17;;;;;;;5.70;1.60;;;;;;;1.00;47.30;100160.94;5348030;32;34307;-61
2021/12/26 08:02:27;;;;;;;6.33;1.67;;;;;;;1.04;47.75;100164.38;5360643;32;33149;-61
2021/12/26 08:05:32;;;;;;;8.07;2.40;;;;;;;1.67;45.44;100164.88;5356678;32;34293;-67
2021/12/26 08:08:36;;;;;;;2.87;1.47;;;;;;;1.51;46.74;100164.12;5355701;32;33897;-66
2021/12/26 08:11:40;;;;;;;8.43;2.10;;;;;;;1.18;46.45;100172.09;5357050;32;33592;-67
2021/12/26 08:14:48;;;;;;;3.22;1.50;;;;;;;1.15;46.57;100179.84;5375232;32;35264;-63
2021/12/26 08:17:57;;;;;;;6.03;1.70;;;;;;;1.82;45.04;100163.94;5373473;32;33095;-62
2021/12/26 08:21:03;;;;;;;4.83;1.60;;;;;;;2.28;45.24;100167.03;5356820;32;36010;-66
2021/12/26 08:24:06;;;;;;;5.60;1.63;;;;;;;1.58;45.01;100171.00;5339931;32;34258;-66
2021/12/26 08:27:19;;;;;;;6.53;1.87;;;;;;;1.01;45.54;100157.47;5356565;32;35304;-62
2021/12/26 08:30:34;;;;;;;3.73;1.40;;;;;;;1.13;45.67;100164.31;5348023;32;33827;-62
2021/12/26 08:33:54;;;;;;;6.20;1.60;;;;;;;1.79;43.71;100170.00;5348311;32;33650;-61
2021/12/26 08:37:02;;;;;;;6.10;1.80;;;;;;;1.92;43.88;100160.41;5354033;32;33796;-61
2021/12/26 08:40:09;;;;;;;7.83;2.03;;;;;;;2.04;43.26;100169.81;5338240;33;33671;-62
2021/12/26 08:43:12;;;;;;;5.87;2.00;;;;;;;1.74;43.99;100155.34;5358964;32;36347;-67
2021/12/26 08:46:17;;;;;;;8.40;2.13;;;;;;;2.45;41.94;100169.47;5370551;32;34770;-67
2021/12/26 08:49:27;;;;;;;16.17;2.50;;;;;;;2.39;42.04;100161.75;5330605;32;35041;-61
2021/12/26 08:52:31;;;;;;;11.20;2.93;;;;;;;2.77;41.24;100173.44;5347841;32;34188;-67
2021/12/26 08:55:34;;;;;;;12.27;2.10;;;;;;;2.02;42.31;100176.75;5348618;32;33266;-66
2021/12/26 08:58:39;;;;;;;6.78;2.08;;;;;;;2.28;42.67;100179.13;5355154;32;34186;-61
2021/12/26 09:01:47;;;;;;;7.93;1.70;;;;;;;2.21;41.68;100177.47;5338317;32;35369;-61
2021/12/26 09:04:57;;;;;;;11.47;2.03;;;;;;;1.96;42.23;100182.84;5346414;33;34653;-61
2021/12/26 09:08:07;;;;;;;4.40;1.67;;;;;;;2.78;40.32;100177.78;5338189;33;36616;-61
2021/12/26 09:11:12;;;;;;;5.77;1.63;;;;;;;2.65;39.89;100170.13;5333400;33;34866;-67
2021/12/26 09:14:20;;;;;;;10.17;1.93;;;;;;;1.48;42.17;100174.53;5329351;33;34918;-61
2021/12/26 09:17:34;;;;;;;4.40;1.50;;;;;;;1.99;41.03;100168.97;5349928;33;34567;-61
2021/12/26 09:20:37;;;;;;;7.40;2.33;;;;;;;1.40;41.55;100165.06;5328595;33;39512;-62
2021/12/26 09:23:41;;;;;;;9.00;1.97;;;;;;;2.38;40.24;100160.00;5347227;33;33017;-60
2021/12/26 09:26:44;;;;;;;12.90;2.20;;;;;;;2.51;39.63;100151.22;5341139;33;32897;-61
2021/12/26 09:29:47;;;;;;;5.03;1.70;;;;;;;2.52;39.58;100152.97;5339376;33;34056;-67
2021/12/26 09:32:51;;;;;;;10.70;2.20;;;;;;;2.62;39.18;100144.19;5332101;33;35240;-61
2021/12/26 09:36:03;;;;;;;4.33;1.60;;;;;;;1.77;39.99;100155.34;5333435;33;35475;-61
2021/12/26 09:39:09;;;;;;;3.20;1.40;;;;;;;1.52;40.51;100141.69;5343447;33;34865;-62
2021/12/26 09:42:16;;;;;;;12.47;1.97;;;;;;;2.43;38.36;100147.84;5328108;33;32984;-67
2021/12/26 09:45:21;;;;;;;4.60;1.62;;;;;;;2.58;37.61;100141.69;5357831;33;34323;-62
2021/12/26 09:48:28;;;;;;;8.90;2.60;;;;;;;2.96;36.86;100139.50;5337136;33;34393;-62
2021/12/26 09:51:41;;;;;;;7.77;2.30;;;;;;;1.93;39.36;100138.78;5350980;33;35025;-62
2021/12/26 09:54:46;;;;;;;9.30;2.33;;;;;;;2.63;38.09;100138.13;5349553;33;34228;-68
2021/12/26 09:57:50;;;;;;;;;;;;;;;2.78;38.16;100139.72;5339759;33;33583;-67
2021/12/26 10:00:59;;;;;;;7.25;2.10;;;;;;;2.35;38.47;100140.16;5348679;33;33903;-62
2021/12/26 10:04:26;;;;;;;7.77;1.83;;;;;;;2.44;37.84;100144.38;5337532;32;34155;-67
2021/12/26 10:07:32;;;;;;;8.93;2.30;;;;;;;2.07;37.59;100131.78;5356286;32;33246;-61
2021/12/26 10:10:39;;;;;;;7.03;2.07;;;;;;;2.86;36.21;100131.84;5373535;32;32961;-67
2021/12/26 10:13:53;;;;;;;14.27;2.50;;;;;;;2.45;36.97;100130.56;5373878;32;35169;-61
2021/12/26 10:17:10;;;;;;;15.23;2.25;;;;;;;3.21;36.25;100123.59;5351022;32;32557;-62
2021/12/26 10:20:20;;;;;;;5.37;1.67;;;;;;;3.04;36.04;100126.44;5353843;32;34293;-61
2021/12/26 10:23:26;;;;;;;6.07;1.97;;;;;;;3.05;35.23;100122.09;5350304;32;36977;-67
2021/12/26 10:26:30;;;;;;;18.77;5.12;;;;;;;2.17;37.29;100123.03;5350789;32;34445;-67
2021/12/26 10:29:38;;;;;;;9.07;2.40;;;;;;;2.72;36.92;100119.03;5366696;32;34412;-67
2021/12/26 10:32:41;;;;;;;5.30;1.97;;;;;;;3.55;35.16;100124.00;5367600;32;32958;-67
2021/12/26 10:35:49;;;;;;;35.07;6.10;;;;;;;3.80;34.33;100117.56;5379083;32;35128;-67
2021/12/26 10:39:12;;;;;;;8.37;2.57;;;;;;;4.54;33.91;100116.28;5352318;33;33530;-68
2021/12/26 10:42:30;;;;;;;6.93;2.00;;;;;;;4.27;34.24;100105.47;5336562;33;34858;-63
2021/12/26 10:45:34;;;;;;;10.47;2.43;;;;;;;3.68;34.15;100107.34;5324771;33;33713;-68
2021/12/26 10:48:38;;;;;;;5.13;1.70;;;;;;;3.12;35.38;100109.00;5349769;33;34842;-67
2021/12/26 10:51:41;;;;;;;10.43;2.83;;;;;;;3.05;35.41;100114.31;5360446;32;35138;-67
2021/12/26 10:54:52;;;;;;;5.07;1.80;;;;;;;2.92;36.27;100116.19;5349165;33;33348;-67
2021/12/26 10:57:55;;;;;;;12.00;2.30;;;;;;;2.63;35.75;100108.72;5346637;33;32779;-62
2021/12/26 11:00:58;;;;;;;6.68;2.37;;;;;;;2.97;35.53;100110.06;5337384;33;34052;-61
2021/12/26 11:04:10;;;;;;;12.35;2.30;;;;;;;3.20;35.48;100101.97;5339685;33;33874;-61
2021/12/26 11:07:13;;;;;;;10.80;2.47;;;;;;;3.11;35.40;100107.28;5337678;33;32928;-67
2021/12/26 11:10:25;;;;;;;6.97;1.50;;;;;;;3.13;34.95;100108.13;5370682;32;35710;-66
2021/12/26 11:13:30;;;;;;;6.40;2.17;;;;;;;3.05;34.94;100107.38;5383369;32;34260;-66
2021/12/26 11:16:38;;;;;;;9.30;2.60;;;;;;;3.62;34.12;100110.03;5381653;32;32695;-67
2021/12/26 11:19:45;;;;;;;7.93;2.20;;;;;;;3.22;34.82;100113.22;5387623;32;34430;-64
2021/12/26 11:22:54;;;;;;;9.70;2.13;;;;;;;3.67;34.28;100105.63;5377541;32;33216;-68
2021/12/26 11:26:25;;;;;;;3.67;1.53;;;;;;;3.69;32.94;100105.59;5361202;32;34081;-67
2021/12/26 11:29:28;;;;;;;4.07;1.70;;;;;;;3.11;33.82;100099.50;5393115;32;33098;-68
2021/12/26 11:32:31;;;;;;;6.87;2.53;;;;;;;2.61;35.01;100100.12;5377303;32;34786;-66
2021/12/26 11:35:33;;;;;;;9.37;2.83;;;;;;;3.35;34.26;100100.03;5385317;32;33907;-67
2021/12/26 11:38:38;;;;;;;5.57;2.07;;;;;;;3.37;34.09;100099.16;5375200;32;33557;-67
2021/12/26 11:41:54;;;;;;;14.40;2.13;;;;;;;2.81;35.14;100094.69;5372188;32;35116;-62
2021/12/26 11:45:24;;;;;;;7.77;1.93;;;;;;;3.70;34.05;100097.78;5373207;32;35484;-66
2021/12/26 11:48:44;;;;;;;8.27;2.37;;;;;;;3.95;33.49;100099.97;5376608;32;34046;-67
2021/12/26 11:52:33;;;;;;;5.70;1.83;;;;;;;2.98;34.39;100083.22;5358740;32;34489;-61
2021/12/26 11:56:04;;;;;;;6.00;2.03;;;;;;;4.24;32.60;100092.50;5365002;32;34394;-61
2021/12/26 11:59:16;;;;;;;6.00;2.05;;;;;;;4.26;31.85;100113.31;5360821;32;33222;-62
2021/12/26 12:02:40;;;;;;;5.67;2.10;;;;;;;4.24;32.24;100115.94;5394193;32;36023;-67
2021/12/26 12:05:44;;;;;;;5.53;2.10;;;;;;;6.24;29.80;100102.94;5390461;32;34191;-62
2021/12/26 12:08:55;;;;;;;12.13;3.27;;;;;;;5.41;30.59;100106.69;5360337;32;33897;-62
2021/12/26 12:12:03;;;;;;;7.03;2.30;;;;;;;6.62;28.25;100099.31;5374059;32;34138;-61
2021/12/26 12:15:10;;;;;;;9.80;2.50;;;;;;;7.29;27.22;100101.75;5397858;32;34662;-68
2021/12/26 12:18:26;;;;;;;7.07;2.07;;;;;;;8.63;25.82;100091.22;5393284;32;32921;-68
2021/12/26 12:21:43;;;;;;;5.77;2.10;;;;;;;9.22;24.60;100094.28;5369559;32;34807;-62
2021/12/26 12:24:54;;;;;;;5.37;2.10;;;;;;;6.12;27.02;100113.72;5362264;32;34952;-61
2021/12/26 12:28:13;;;;;;;7.27;2.00;;;;;;;6.92;26.16;100117.66;5390822;32;36721;-62
2021/12/26 12:31:18;;;;;;;7.27;1.97;;;;;;;6.98;25.31;100113.09;5365350;32;35258;-68
2021/12/26 12:34:21;;;;;;;6.63;2.10;;;;;;;6.00;26.89;100111.41;5388237;32;34056;-69
2021/12/26 12:37:36;;;;;;;15.00;2.60;;;;;;;7.31;25.17;100105.16;5379122;32;34772;-66
2021/12/26 12:40:39;;;;;;;9.17;2.10;;;;;;;7.28;26.13;100094.81;5382830;32;36189;-61
2021/12/26 12:43:50;;;;;;;6.30;2.27;;;;;;;9.04;23.33;100083.63;5381764;32;34270;-63
2021/12/26 12:47:24;;;;;;;10.60;2.13;;;;;;;7.72;24.80;100093.41;5382959;32;34042;-66
2021/12/26 12:50:35;;;;;;;5.82;2.35;;;;;;;5.05;28.45;100090.94;5371846;32;34044;-61
2021/12/26 12:53:43;;;;;;;8.67;3.10;;;;;;;5.83;27.73;100098.72;5364606;32;34605;-61
2021/12/26 12:56:52;;;;;;;7.03;2.10;;;;;;;6.10;27.09;100094.59;5381789;32;34450;-64
2021/12/26 12:59:54;;;;;;;7.37;2.23;;;;;;;4.72;29.26;100089.88;5381689;32;33787;-62
2021/12/26 13:03:22;;;;;;;6.37;2.23;;;;;;;4.71;29.80;100079.53;5365206;32;35085;-62
2021/12/26 13:06:25;;;;;;;6.27;2.20;;;;;;;5.81;28.11;100077.06;5376143;32;33910;-62
2021/12/26 13:09:30;;;;;;;11.87;2.53;;;;;;;4.96;29.47;100072.03;5374177;32;34762;-62
2021/12/26 13:12:35;;;;;;;8.43;3.03;;;;;;;4.48;30.22;100079.94;5374148;32;31791;-62
2021/12/26 13:15:54;;;;;;;11.97;2.50;;;;;;;4.53;30.34;100055.56;5376331;32;35240;-61
2021/12/26 13:19:05;;;;;;;5.67;2.40;;;;;;;3.96;31.20;100065.28;5385937;32;34354;-61
2021/12/26 13:22:07;;;;;;;6.13;2.10;;;;;;;4.30;30.61;100055.13;5391205;32;34508;-68
2021/12/26 13:25:27;;;;;;;7.10;2.20;;;;;;;4.58;29.71;100055.47;5375639;32;34123;-61
2021/12/26 13:28:31;;;;;;;3.13;1.67;;;;;;;4.07;29.44;100061.63;5370069;32;34622;-66
2021/12/26 13:31:35;;;;;;;7.33;1.93;;;;;;;4.33;28.57;100058.53;5362505;32;35997;-66
2021/12/26 13:34:37;;;;;;;5.23;2.10;;;;;;;4.94;28.17;100047.78;5374386;32;34332;-68
2021/12/26 13:37:39;;;;;;;6.33;1.90;;;;;;;4.63;28.27;100049.25;5382319;32;34407;-68
2021/12/26 13:40:51;;;;;;;5.37;1.90;;;;;;;4.60;28.74;100058.88;5366580;32;34654;-64
2021/12/26 13:43:57;;;;;;;9.17;2.27;;;;;;;4.77;28.43;100066.38;5389385;32;34004;-62
2021/12/26 13:47:00;;;;;;;5.70;1.97;;;;;;;4.19;28.30;100063.16;5363340;32;34872;-66
2021/12/26 13:50:13;;;;;;;5.53;2.17;;;;;;;4.34;27.95;100060.25;5380312;32;34490;-61
2021/12/26 13:53:15;;;;;;;6.20;2.37;;;;;;;3.67;29.12;100070.97;5362981;32;33863;-68
2021/12/26 13:56:22;;;;;;;9.47;1.90;;;;;;;4.98;28.03;100065.06;5382928;32;34342;-68
2021/12/26 13:59:45;;;;;;;4.07;1.47;;;;;;;3.28;29.34;100077.63;5361705;32;32558;-67
2021/12/26 14:02:47;;;;;;;10.50;2.37;;;;;;;3.42;28.84;100073.09;5373328;32;34170;-67
2021/12/26 14:05:51;;;;;;;6.50;2.03;;;;;;;4.19;28.52;100077.91;5351149;32;35377;-62
2021/12/26 14:09:06;;;;;;;7.20;2.10;;;;;;;4.20;29.60;100084.81;5354558;32;34223;-61
2021/12/26 14:12:34;;;;;;;7.78;2.00;;;;;;;4.02;30.59;100086.84;5344995;32;33029;-61
2021/12/26 14:15:50;;;;;;;6.95;2.30;;;;;;;3.40;31.15;100093.03;5362080;32;35348;-68
2021/12/26 14:18:53;;;;;;;8.67;2.70;;;;;;;3.28;32.03;100095.81;5368007;32;35054;-67
2021/12/26 14:21:56;;;;;;;13.83;3.10;;;;;;;3.59;32.06;100093.63;5367834;32;32871;-62
2021/12/26 14:25:11;;;;;;;9.17;3.00;;;;;;;3.70;32.47;100089.97;5351052;33;33596;-67
2021/12/26 14:28:20;;;;;;;12.33;3.30;;;;;;;4.01;32.03;100094.69;5354479;32;33803;-62
2021/12/26 14:31:42;;;;;;;11.43;3.27;;;;;;;4.21;31.98;100095.19;5358945;32;33810;-61
2021/12/26 14:34:47;;;;;;;20.93;3.90;;;;;;;3.95;32.78;100103.44;5370896;32;33807;-62
2021/12/26 14:37:51;;;;;;;12.37;3.70;;;;;;;4.30;31.93;100099.34;5371158;32;33143;-66
2021/12/26 14:41:03;;;;;;;13.25;3.35;;;;;;;3.57;33.08;100098.84;5351812;32;34478;-66
2021/12/26 14:44:33;;;;;;;10.87;3.60;;;;;;;3.39;33.92;100096.50;5366822;32;35059;-61
2021/12/26 14:47:47;;;;;;;15.40;4.50;;;;;;;3.55;33.57;100111.00;5369027;32;34922;-68
2021/12/26 14:50:51;;;;;;;20.60;5.55;;;;;;;4.37;32.53;100106.16;5351804;32;34197;-67